Time;durP1;ratioP1;P1;durP2;ratioP2;P2;SDS_P1;SDS_P2;PMS_P1;PMS_P2;Temp;Humidity;BMP_temperature;BMP_pressure;BME280_temperature;BME280_humidity;BME280_pressure;Samples;Min_cycle;Max_cycle;Signal;HPM_P1;HPM_P2
2020/12/27 00:02:10;;;;;;;;;;;23.20;91.70;;;;;;5130388;27;19922;-78
2020/12/27 00:04:37;;;;;;;;;;;23.20;91.50;;;;;;5128419;27;19922;-79
2020/12/27 00:07:07;;;;;;;;;;;23.30;91.30;;;;;;5116066;28;19922;-79
2020/12/27 00:09:35;;;;;;;;;;;23.30;91.90;;;;;;5116743;28;19908;-79
2020/12/27 00:12:01;;;;;;;;;;;23.50;91.60;;;;;;5118064;28;19962;-81
2020/12/27 00:14:28;;;;;;;;;;;23.60;90.80;;;;;;5121076;28;19915;-79
2020/12/27 00:16:54;;;;;;;;;;;23.70;91.00;;;;;;5117352;27;20062;-78
2020/12/27 00:19:21;;;;;;;;;;;23.60;90.40;;;;;;5119753;27;19912;-78
2020/12/27 00:21:48;;;;;;;;;;;23.90;90.80;;;;;;5116155;28;20282;-79
2020/12/27 00:24:14;;;;;;;;;;;24.10;88.80;;;;;;5116922;28;19914;-79
2020/12/27 00:26:41;;;;;;;;;;;24.20;89.10;;;;;;5115540;28;20405;-79
2020/12/27 00:29:08;;;;;;;;;;;24.30;90.30;;;;;;5115876;28;19912;-79
2020/12/27 00:31:34;;;;;;;;;;;24.50;90.70;;;;;;5115413;28;19915;-77
2020/12/27 00:34:13;;;;;;;;;;;24.80;87.30;;;;;;5115318;28;19912;-78
2020/12/27 00:36:39;;;;;;;;;;;25.10;86.40;;;;;;5096390;28;19912;-78
2020/12/27 00:39:06;;;;;;;;;;;25.20;85.00;;;;;;5097338;28;19912;-77
2020/12/27 00:41:34;;;;;;;;;;;25.30;84.90;;;;;;5115403;28;19915;-79
2020/12/27 00:44:01;;;;;;;;;;;25.70;83.50;;;;;;5096887;28;20464;-78
2020/12/27 00:46:27;;;;;;;;;;;26.10;84.30;;;;;;5115273;28;20037;-77
2020/12/27 00:48:54;;;;;;;;;;;26.20;82.70;;;;;;5115287;28;19918;-77
2020/12/27 00:51:30;;;;;;;;;;;26.50;79.60;;;;;;5115028;28;19951;-78
2020/12/27 00:53:56;;;;;;;;;;;26.80;77.50;;;;;;5114760;28;19907;-78
2020/12/27 00:56:26;;;;;;;;;;;26.90;77.10;;;;;;5096841;28;19918;-77
2020/12/27 00:58:53;;;;;;;;;;;27.00;74.70;;;;;;5114602;28;19916;-78
2020/12/27 01:01:19;;;;;;;;;;;27.40;74.70;;;;;;5113839;28;19972;-79
2020/12/27 01:03:46;;;;;;;;;;;27.50;74.50;;;;;;5131425;27;19915;-79
2020/12/27 01:06:15;;;;;;;;;;;28.10;71.00;;;;;;5100300;28;20366;-79
2020/12/27 01:08:42;;;;;;;;;;;28.30;70.50;;;;;;5114275;28;19916;-76
2020/12/27 01:11:09;;;;;;;;;;;28.70;69.50;;;;;;5115071;28;19914;-77
2020/12/27 01:13:37;;;;;;;;;;;28.80;68.80;;;;;;5114570;28;19912;-77
2020/12/27 01:16:04;;;;;;;;;;;28.80;68.40;;;;;;5114781;28;19912;-79
2020/12/27 01:18:30;;;;;;;;;;;28.80;66.70;;;;;;5114855;28;19908;-79
2020/12/27 01:20:57;;;;;;;;;;;28.90;69.10;;;;;;5115195;28;20011;-77
2020/12/27 01:23:26;;;;;;;;;;;29.30;68.10;;;;;;5114594;28;19908;-78
2020/12/27 01:25:53;;;;;;;;;;;29.90;69.30;;;;;;5115027;28;20464;-80
2020/12/27 01:28:20;;;;;;;;;;;29.60;69.30;;;;;;5099601;28;19969;-78
2020/12/27 01:30:46;;;;;;;;;;;29.70;68.90;;;;;;5115233;28;19908;-77
2020/12/27 01:33:13;;;;;;;;;;;30.00;69.20;;;;;;5116102;28;19919;-76
2020/12/27 01:35:43;;;;;;;;;;;30.30;69.80;;;;;;5115098;28;19961;-79
2020/12/27 01:38:10;;;;;;;;;;;30.00;69.60;;;;;;5115932;28;19988;-77
2020/12/27 01:40:36;;;;;;;;;;;29.60;71.00;;;;;;5124447;28;20358;-78
2020/12/27 01:43:03;;;;;;;;;;;30.00;69.70;;;;;;5122914;28;20343;-78
2020/12/27 01:45:30;;;;;;;;;;;29.90;70.60;;;;;;5122044;28;19923;-77
2020/12/27 01:47:57;;;;;;;;;;;29.80;70.00;;;;;;5115161;28;19908;-78
2020/12/27 01:50:24;;;;;;;;;;;29.50;72.00;;;;;;5112716;28;20362;-77
2020/12/27 01:52:51;;;;;;;;;;;29.20;71.70;;;;;;5111834;28;19915;-79
2020/12/27 01:55:18;;;;;;;;;;;28.60;74.40;;;;;;5113575;28;19959;-78
2020/12/27 01:57:54;;;;;;;;;;;28.60;75.30;;;;;;5107168;28;19943;-76
2020/12/27 02:00:21;;;;;;;;;;;28.20;76.30;;;;;;5111208;28;19923;-78
2020/12/27 02:02:51;;;;;;;;;;;27.90;77.70;;;;;;5111535;28;20006;-77
2020/12/27 02:05:18;;;;;;;;;;;27.80;77.70;;;;;;5119481;27;19964;-77
2020/12/27 02:07:45;;;;;;;;;;;27.40;78.60;;;;;;5131598;27;19930;-78
2020/12/27 02:10:12;;;;;;;;;;;27.30;80.90;;;;;;5113984;28;19907;-82
2020/12/27 02:12:38;;;;;;;;;;;27.30;79.90;;;;;;5113893;28;19915;-78
2020/12/27 02:15:07;;;;;;;;;;;27.10;80.40;;;;;;5112706;28;19924;-80
2020/12/27 02:17:33;;;;;;;;;;;26.90;81.20;;;;;;5099449;28;19938;-78
2020/12/27 02:20:00;;;;;;;;;;;26.80;82.20;;;;;;5096980;28;19920;-79
2020/12/27 02:22:27;;;;;;;;;;;26.80;82.30;;;;;;5118338;28;19931;-81
2020/12/27 02:24:54;;;;;;;;;;;26.80;81.50;;;;;;5126968;27;19912;-79
2020/12/27 02:27:20;;;;;;;;;;;26.80;81.80;;;;;;5117359;28;19912;-79
2020/12/27 02:29:47;;;;;;;;;;;27.00;82.60;;;;;;5114718;27;20269;-79
2020/12/27 02:32:14;;;;;;;;;;;27.00;81.50;;;;;;5120457;28;20014;-81
2020/12/27 02:34:40;;;;;;;;;;;26.90;82.00;;;;;;5101159;28;20355;-78
2020/12/27 02:37:07;;;;;;;;;;;26.90;81.90;;;;;;5112773;28;19915;-77
2020/12/27 02:39:33;;;;;;;;;;;26.80;81.50;;;;;;5113146;28;19920;-77
2020/12/27 02:42:00;;;;;;;;;;;26.80;82.10;;;;;;5120544;28;19916;-77
2020/12/27 02:44:29;;;;;;;;;;;;;;;;;;;;;
2020/12/27 02:46:56;;;;;;;;;;;26.80;82.20;;;;;;5141039;27;19932;-76
2020/12/27 02:49:22;;;;;;;;;;;26.70;82.20;;;;;;5132923;27;20396;-76
2020/12/27 02:51:49;;;;;;;;;;;26.80;82.90;;;;;;5124790;28;19949;-76
2020/12/27 02:54:15;;;;;;;;;;;26.70;82.90;;;;;;5120827;27;19911;-76
2020/12/27 02:56:42;;;;;;;;;;;26.70;82.70;;;;;;5112657;28;19912;-76
2020/12/27 02:59:09;;;;;;;;;;;26.70;83.40;;;;;;5112553;28;19990;-76
2020/12/27 03:01:35;;;;;;;;;;;26.70;83.60;;;;;;5112768;28;20312;-76
2020/12/27 03:04:02;;;;;;;;;;;26.70;82.80;;;;;;5109304;28;20393;-77
2020/12/27 03:06:29;;;;;;;;;;;26.60;82.60;;;;;;5113336;28;19927;-81
2020/12/27 03:08:55;;;;;;;;;;;26.40;83.50;;;;;;5095023;28;19912;-76
2020/12/27 03:11:23;;;;;;;;;;;26.20;84.10;;;;;;5112503;28;20362;-77
2020/12/27 03:13:51;;;;;;;;;;;26.20;84.40;;;;;;5113183;28;19908;-80
2020/12/27 03:16:18;;;;;;;;;;;26.20;84.40;;;;;;5096551;28;19920;-79
2020/12/27 03:18:44;;;;;;;;;;;26.30;84.20;;;;;;5115867;28;19943;-77
2020/12/27 03:21:11;;;;;;;;;;;26.30;83.90;;;;;;5117100;28;19915;-79
2020/12/27 03:23:37;;;;;;;;;;;26.30;83.40;;;;;;5119268;28;20335;-77
2020/12/27 03:26:04;;;;;;;;;;;26.20;84.70;;;;;;5124815;28;19911;-77
2020/12/27 03:28:31;;;;;;;;;;;26.10;83.00;;;;;;5124852;28;19911;-78
2020/12/27 03:30:57;;;;;;;;;;;26.00;84.20;;;;;;5116158;28;19915;-77
2020/12/27 03:33:24;;;;;;;;;;;26.10;84.90;;;;;;5115745;28;20006;-78
2020/12/27 03:35:51;;;;;;;;;;;26.20;85.20;;;;;;5116597;28;19907;-78
2020/12/27 03:38:17;;;;;;;;;;;26.10;83.90;;;;;;5115665;28;20254;-78
2020/12/27 03:40:44;;;;;;;;;;;26.00;85.00;;;;;;5116764;28;19923;-77
2020/12/27 03:43:11;;;;;;;;;;;26.00;85.60;;;;;;5116349;28;20008;-76
2020/12/27 03:45:39;;;;;;;;;;;26.20;85.10;;;;;;5115965;28;19908;-77
2020/12/27 03:48:06;;;;;;;;;;;26.10;83.90;;;;;;5115609;28;19911;-79
2020/12/27 03:50:33;;;;;;;;;;;26.10;84.10;;;;;;5113516;28;19915;-79
2020/12/27 03:53:00;;;;;;;;;;;26.00;84.10;;;;;;5111865;28;19908;-77
2020/12/27 03:55:26;;;;;;;;;;;26.10;83.20;;;;;;5136865;28;19934;-76
2020/12/27 03:57:56;;;;;;;;;;;26.10;83.60;;;;;;5116905;28;19920;-78
2020/12/27 04:00:23;;;;;;;;;;;26.10;84.30;;;;;;5115149;28;19920;-79
2020/12/27 04:02:50;;;;;;;;;;;26.00;84.00;;;;;;5115214;28;20354;-79
2020/12/27 04:05:20;;;;;;;;;;;25.80;84.70;;;;;;5114094;28;19964;-78
2020/12/27 04:07:46;;;;;;;;;;;25.80;83.20;;;;;;5114983;28;19919;-78
2020/12/27 04:10:13;;;;;;;;;;;25.70;82.70;;;;;;5112900;28;19908;-77
2020/12/27 04:12:40;;;;;;;;;;;25.80;82.20;;;;;;5114848;28;19911;-76
2020/12/27 04:15:09;;;;;;;;;;;25.80;82.20;;;;;;5115103;28;19912;-78
2020/12/27 04:17:36;;;;;;;;;;;25.80;80.80;;;;;;5112322;28;19907;-77
2020/12/27 04:20:03;;;;;;;;;;;26.00;80.80;;;;;;5113952;28;19968;-77
2020/12/27 04:22:30;;;;;;;;;;;26.00;79.60;;;;;;5114757;28;20043;-77
2020/12/27 04:24:56;;;;;;;;;;;26.00;78.80;;;;;;5113828;28;19916;-78
2020/12/27 04:27:23;;;;;;;;;;;26.00;78.80;;;;;;5113240;28;19912;-77
2020/12/27 04:29:50;;;;;;;;;;;26.00;78.90;;;;;;5113744;28;19908;-79
2020/12/27 04:32:16;;;;;;;;;;;25.80;78.40;;;;;;5111941;28;19912;-78
2020/12/27 04:34:43;;;;;;;;;;;25.70;78.50;;;;;;5113589;28;19914;-78
2020/12/27 04:37:10;;;;;;;;;;;25.70;79.00;;;;;;5112897;28;19967;-77
2020/12/27 04:39:36;;;;;;;;;;;25.80;78.00;;;;;;5112684;28;19908;-78
2020/12/27 04:42:03;;;;;;;;;;;25.70;77.40;;;;;;5113453;28;20358;-77
2020/12/27 04:44:31;;;;;;;;;;;25.80;78.20;;;;;;5113385;28;19933;-79
2020/12/27 04:46:59;;;;;;;;;;;25.80;78.20;;;;;;5114157;28;19919;-78
2020/12/27 04:49:26;;;;;;;;;;;25.80;78.80;;;;;;5095621;28;19947;-76
2020/12/27 04:51:53;;;;;;;;;;;25.80;78.40;;;;;;5095663;28;19942;-77
2020/12/27 04:54:22;;;;;;;;;;;25.90;78.20;;;;;;5114842;28;19999;-78
2020/12/27 04:56:52;;;;;;;;;;;25.80;78.30;;;;;;5114820;28;20022;-77
2020/12/27 04:59:18;;;;;;;;;;;25.90;78.80;;;;;;5114429;28;20653;-78
2020/12/27 05:01:45;;;;;;;;;;;25.80;79.80;;;;;;5114815;28;19916;-79
2020/12/27 05:04:18;;;;;;;;;;;25.70;79.90;;;;;;5120240;27;19912;-78
2020/12/27 05:06:45;;;;;;;;;;;25.80;79.90;;;;;;5141868;27;19968;-78
2020/12/27 05:09:12;;;;;;;;;;;25.80;79.30;;;;;;5130170;27;21094;-77
2020/12/27 05:11:38;;;;;;;;;;;25.80;79.20;;;;;;5114445;28;20350;-77
2020/12/27 05:14:05;;;;;;;;;;;25.90;78.10;;;;;;5114520;28;19911;-77
2020/12/27 05:16:32;;;;;;;;;;;26.00;77.70;;;;;;5114720;28;19969;-78
2020/12/27 05:18:59;;;;;;;;;;;26.00;77.90;;;;;;5114642;28;19915;-78
2020/12/27 05:21:26;;;;;;;;;;;26.00;77.70;;;;;;5109925;28;19920;-79
2020/12/27 05:23:54;;;;;;;;;;;25.80;78.20;;;;;;5095066;28;19999;-76
2020/12/27 05:26:28;;;;;;;;;;;26.00;78.50;;;;;;5094074;28;19908;-78
2020/12/27 05:28:58;;;;;;;;;;;25.90;78.20;;;;;;5094190;28;19983;-78
2020/12/27 05:31:34;;;;;;;;;;;25.90;79.00;;;;;;5076345;28;20354;-78
2020/12/27 05:34:01;;;;;;;;;;;25.80;78.90;;;;;;5099221;28;19908;-76
2020/12/27 05:36:28;;;;;;;;;;;25.80;79.30;;;;;;5097710;28;19908;-78
2020/12/27 05:38:55;;;;;;;;;;;26.00;80.40;;;;;;5093374;28;19908;-75
2020/12/27 05:41:25;;;;;;;;;;;26.00;79.70;;;;;;5092925;28;19942;-76
2020/12/27 05:43:59;;;;;;;;;;;26.00;79.60;;;;;;5093669;28;20010;-76
2020/12/27 05:46:26;;;;;;;;;;;26.10;79.40;;;;;;5093757;28;19954;-77
2020/12/27 05:48:58;;;;;;;;;;;26.00;79.90;;;;;;5093496;28;19920;-76
2020/12/27 05:51:25;;;;;;;;;;;26.00;79.80;;;;;;5093512;28;19930;-78
2020/12/27 05:53:52;;;;;;;;;;;26.00;79.90;;;;;;5093794;28;19919;-76
2020/12/27 05:56:20;;;;;;;;;;;26.00;80.00;;;;;;5094046;28;19915;-76
2020/12/27 05:58:50;;;;;;;;;;;25.90;79.90;;;;;;5093841;28;19908;-76
2020/12/27 06:01:23;;;;;;;;;;;25.80;80.20;;;;;;5093472;28;19927;-76
2020/12/27 06:04:02;;;;;;;;;;;25.80;79.70;;;;;;5093576;28;19909;-78
2020/12/27 06:06:47;;;;;;;;;;;25.90;79.40;;;;;;5113520;28;19919;-77
2020/12/27 06:09:34;;;;;;;;;;;25.80;79.20;;;;;;5114251;28;19915;-76
2020/12/27 06:12:04;;;;;;;;;;;25.90;80.20;;;;;;5113868;28;19912;-77
2020/12/27 06:14:37;;;;;;;;;;;25.80;79.50;;;;;;5113888;28;19914;-77
2020/12/27 06:17:10;;;;;;;;;;;25.80;79.80;;;;;;5113986;28;20381;-78
2020/12/27 06:19:39;;;;;;;;;;;25.90;80.20;;;;;;5113784;28;20010;-78
2020/12/27 06:22:07;;;;;;;;;;;25.80;80.00;;;;;;5114311;28;20453;-79
2020/12/27 06:24:35;;;;;;;;;;;25.80;79.70;;;;;;5096169;28;20390;-79
2020/12/27 06:27:05;;;;;;;;;;;25.80;80.50;;;;;;5115167;28;19911;-79
2020/12/27 06:29:37;;;;;;;;;;;25.90;81.00;;;;;;5123014;28;19919;-77
2020/12/27 06:32:05;;;;;;;;;;;25.70;81.70;;;;;;5128951;28;19943;-77
2020/12/27 06:34:31;;;;;;;;;;;25.60;82.60;;;;;;5128580;28;19908;-78
2020/12/27 06:37:01;;;;;;;;;;;25.60;82.80;;;;;;5128286;28;19908;-78
2020/12/27 06:39:29;;;;;;;;;;;25.50;83.80;;;;;;5109255;28;19957;-77
2020/12/27 06:42:11;;;;;;;;;;;25.40;84.00;;;;;;5125102;28;19916;-78
2020/12/27 06:44:41;;;;;;;;;;;25.40;84.50;;;;;;5113549;28;19914;-77
2020/12/27 06:47:11;;;;;;;;;;;25.30;85.90;;;;;;5111539;28;19988;-77
2020/12/27 06:49:38;;;;;;;;;;;25.30;85.40;;;;;;5119726;28;19912;-78
2020/12/27 06:52:21;;;;;;;;;;;25.30;85.00;;;;;;5114473;28;19911;-77
2020/12/27 06:54:48;;;;;;;;;;;25.20;84.80;;;;;;5114301;28;19919;-78
2020/12/27 06:57:33;;;;;;;;;;;25.10;84.40;;;;;;5095491;28;20333;-81
2020/12/27 07:00:18;;;;;;;;;;;25.10;84.80;;;;;;5112756;28;19922;-80
2020/12/27 07:02:45;;;;;;;;;;;25.10;85.70;;;;;;5114070;28;19908;-80
2020/12/27 07:05:33;;;;;;;;;;;25.00;85.80;;;;;;5118863;27;19980;-84
2020/12/27 07:08:04;;;;;;;;;;;25.00;86.20;;;;;;5136397;27;20327;-79
2020/12/27 07:10:31;;;;;;;;;;;24.90;86.20;;;;;;5117708;27;19935;-78
2020/12/27 07:13:14;;;;;;;;;;;24.80;86.70;;;;;;5136165;27;19907;-76
2020/12/27 07:15:51;;;;;;;;;;;24.80;86.80;;;;;;5136148;27;19907;-79
2020/12/27 07:18:31;;;;;;;;;;;24.80;87.10;;;;;;5147459;27;19907;-76
2020/12/27 07:21:00;;;;;;;;;;;24.60;86.90;;;;;;5138311;27;19920;-76
2020/12/27 07:23:30;;;;;;;;;;;24.60;87.10;;;;;;5134988;27;20366;-79
2020/12/27 07:25:59;;;;;;;;;;;24.60;87.30;;;;;;5118166;27;19916;-84
2020/12/27 07:28:26;;;;;;;;;;;24.50;87.30;;;;;;5116358;27;19920;-77
2020/12/27 07:31:02;;;;;;;;;;;24.50;87.50;;;;;;5131519;27;19912;-78
2020/12/27 07:33:32;;;;;;;;;;;24.50;87.60;;;;;;5131762;27;19915;-76
2020/12/27 07:36:10;;;;;;;;;;;24.50;87.90;;;;;;5115470;28;19919;-76
2020/12/27 07:39:05;;;;;;;;;;;24.50;87.40;;;;;;5125649;27;20305;-78
2020/12/27 07:41:34;;;;;;;;;;;24.40;87.40;;;;;;5134455;27;19919;-78
2020/12/27 07:44:01;;;;;;;;;;;24.40;87.80;;;;;;5133649;27;19911;-77
2020/12/27 07:46:28;;;;;;;;;;;24.50;87.70;;;;;;5134590;27;20258;-76
2020/12/27 07:48:55;;;;;;;;;;;24.50;87.30;;;;;;5134468;27;20028;-74
2020/12/27 07:51:23;;;;;;;;;;;24.50;87.90;;;;;;5134380;27;19968;-76
2020/12/27 07:53:49;;;;;;;;;;;24.50;87.30;;;;;;5133993;27;20026;-76
2020/12/27 07:56:17;;;;;;;;;;;24.50;88.20;;;;;;5133734;27;19915;-76
2020/12/27 07:58:50;;;;;;;;;;;24.40;88.10;;;;;;5133509;27;19951;-76
2020/12/27 08:01:35;;;;;;;;;;;24.40;88.30;;;;;;5114849;27;20362;-75
2020/12/27 08:04:02;;;;;;;;;;;24.40;88.30;;;;;;5135248;27;19932;-75
2020/12/27 08:06:30;;;;;;;;;;;24.40;88.60;;;;;;5116464;27;20027;-79
2020/12/27 08:09:25;;;;;;;;;;;24.40;88.00;;;;;;5115949;28;19915;-76
2020/12/27 08:11:52;;;;;;;;;;;24.40;87.60;;;;;;5113415;28;19919;-76
2020/12/27 08:14:19;;;;;;;;;;;24.40;88.40;;;;;;5114797;28;20286;-75
2020/12/27 08:16:46;;;;;;;;;;;24.40;88.00;;;;;;5115577;28;19961;-76
2020/12/27 08:19:14;;;;;;;;;;;24.30;88.00;;;;;;5116343;28;19907;-76
2020/12/27 08:21:41;;;;;;;;;;;24.30;87.90;;;;;;5115806;28;19916;-76
2020/12/27 08:24:12;;;;;;;;;;;24.30;88.40;;;;;;5114606;28;19927;-77
2020/12/27 08:26:39;;;;;;;;;;;24.30;88.20;;;;;;5115075;28;20343;-78
2020/12/27 08:29:14;;;;;;;;;;;24.20;88.20;;;;;;5115632;28;20007;-76
2020/12/27 08:31:41;;;;;;;;;;;24.20;88.30;;;;;;5114208;28;19982;-75
2020/12/27 08:34:10;;;;;;;;;;;24.20;88.40;;;;;;5114655;28;19912;-77
2020/12/27 08:36:40;;;;;;;;;;;24.20;88.40;;;;;;5114963;28;19912;-79
2020/12/27 08:39:10;;;;;;;;;;;24.10;88.70;;;;;;5113196;27;20259;-76
2020/12/27 08:41:39;;;;;;;;;;;24.10;89.00;;;;;;5104841;28;19919;-78
2020/12/27 08:44:09;;;;;;;;;;;24.10;89.30;;;;;;5115650;28;20314;-77
2020/12/27 08:46:37;;;;;;;;;;;24.10;89.30;;;;;;5106625;28;20062;-76
2020/12/27 08:49:19;;;;;;;;;;;24.00;89.30;;;;;;5116539;28;19961;-78
2020/12/27 08:51:48;;;;;;;;;;;24.00;89.70;;;;;;5108166;28;19920;-77
2020/12/27 08:54:16;;;;;;;;;;;24.10;90.00;;;;;;5103148;28;19918;-76
2020/12/27 08:56:43;;;;;;;;;;;24.00;89.90;;;;;;5114071;28;20348;-77
2020/12/27 08:59:29;;;;;;;;;;;24.10;90.00;;;;;;5113964;28;20354;-77
2020/12/27 09:01:56;;;;;;;;;;;24.10;90.20;;;;;;5113801;28;19920;-77
2020/12/27 09:04:22;;;;;;;;;;;24.10;90.40;;;;;;5116752;27;19973;-76
2020/12/27 09:06:56;;;;;;;;;;;24.10;90.50;;;;;;5155467;27;19954;-76
2020/12/27 09:09:29;;;;;;;;;;;24.00;90.60;;;;;;5139176;27;19911;-76
2020/12/27 09:11:56;;;;;;;;;;;24.10;90.70;;;;;;5131040;27;19934;-77
2020/12/27 09:14:32;;;;;;;;;;;24.10;90.60;;;;;;5129853;27;19915;-80
2020/12/27 09:17:03;;;;;;;;;;;24.00;90.60;;;;;;5125145;27;19908;-78
2020/12/27 09:19:33;;;;;;;;;;;24.00;90.50;;;;;;5116958;27;19976;-76
2020/12/27 09:22:04;;;;;;;;;;;24.00;90.50;;;;;;5134286;27;19915;-78
2020/12/27 09:24:31;;;;;;;;;;;24.00;90.50;;;;;;5123561;27;19919;-75
2020/12/27 09:27:07;;;;;;;;;;;24.00;90.00;;;;;;5114321;28;20367;-76
2020/12/27 09:29:34;;;;;;;;;;;24.00;89.50;;;;;;5113706;28;20346;-76
2020/12/27 09:32:08;;;;;;;;;;;24.00;89.70;;;;;;5129427;27;20337;-75
2020/12/27 09:34:35;;;;;;;;;;;24.00;89.20;;;;;;5122812;27;19943;-78
2020/12/27 09:37:14;;;;;;;;;;;24.00;88.80;;;;;;5114612;27;19911;-77
2020/12/27 09:39:45;;;;;;;;;;;24.00;88.50;;;;;;5131541;27;19912;-75
2020/12/27 09:42:21;;;;;;;;;;;24.10;87.80;;;;;;5123646;27;20018;-75
2020/12/27 09:44:48;;;;;;;;;;;24.10;88.00;;;;;;5113554;28;19915;-76
2020/12/27 09:47:27;;;;;;;;;;;24.00;87.20;;;;;;5117254;27;19965;-75
2020/12/27 09:50:01;;;;;;;;;;;24.10;87.30;;;;;;5146280;27;19998;-76
2020/12/27 09:52:31;;;;;;;;;;;24.10;87.80;;;;;;5117949;27;20274;-75
2020/12/27 09:55:00;;;;;;;;;;;24.10;87.90;;;;;;5130250;27;19961;-75
2020/12/27 09:57:27;;;;;;;;;;;24.00;88.20;;;;;;5114052;28;19908;-76
2020/12/27 09:59:55;;;;;;;;;;;24.10;88.50;;;;;;5123518;27;19963;-75
2020/12/27 10:02:22;;;;;;;;;;;24.10;88.80;;;;;;5118478;27;20282;-75
2020/12/27 10:04:49;;;;;;;;;;;24.10;88.70;;;;;;5115099;27;19918;-78
2020/12/27 10:07:16;;;;;;;;;;;24.10;88.40;;;;;;5125759;27;19958;-77
2020/12/27 10:09:43;;;;;;;;;;;24.10;89.00;;;;;;5120705;27;20282;-72
2020/12/27 10:12:09;;;;;;;;;;;24.10;89.00;;;;;;5113637;27;19915;-75
2020/12/27 10:14:36;;;;;;;;;;;24.10;89.10;;;;;;5131389;27;20067;-77
2020/12/27 10:17:03;;;;;;;;;;;24.10;89.30;;;;;;5115223;28;19907;-77
2020/12/27 10:19:30;;;;;;;;;;;24.10;89.30;;;;;;5132153;27;20507;-77
2020/12/27 10:21:57;;;;;;;;;;;24.10;89.90;;;;;;5133741;27;19927;-78
2020/12/27 10:24:26;;;;;;;;;;;24.10;90.00;;;;;;5134194;27;19907;-78
2020/12/27 10:26:53;;;;;;;;;;;24.00;90.30;;;;;;5127524;27;19915;-77
2020/12/27 10:29:20;;;;;;;;;;;24.00;90.40;;;;;;5128542;28;20006;-78
2020/12/27 10:31:53;;;;;;;;;;;24.00;90.50;;;;;;5133528;28;19919;-77
2020/12/27 10:34:20;;;;;;;;;;;24.00;90.70;;;;;;5117574;28;20010;-76
2020/12/27 10:36:47;;;;;;;;;;;24.00;90.70;;;;;;5128549;28;19915;-76
2020/12/27 10:39:15;;;;;;;;;;;23.90;90.80;;;;;;5132991;28;19965;-78
2020/12/27 10:41:42;;;;;;;;;;;24.00;90.90;;;;;;5133352;28;20006;-79
2020/12/27 10:44:09;;;;;;;;;;;24.00;90.90;;;;;;5132341;28;19915;-77
2020/12/27 10:46:36;;;;;;;;;;;23.90;91.00;;;;;;5133679;28;19907;-78
2020/12/27 10:49:03;;;;;;;;;;;24.00;91.00;;;;;;5132366;28;19915;-76
2020/12/27 10:51:36;;;;;;;;;;;24.00;91.10;;;;;;5132292;28;20002;-78
2020/12/27 10:54:03;;;;;;;;;;;23.90;91.00;;;;;;5131082;28;19937;-78
2020/12/27 10:56:30;;;;;;;;;;;24.00;91.10;;;;;;5132572;28;19958;-77
2020/12/27 10:58:57;;;;;;;;;;;24.00;91.20;;;;;;5132484;28;19914;-77
2020/12/27 11:01:23;;;;;;;;;;;24.00;90.90;;;;;;5131656;28;19920;-78
2020/12/27 11:03:50;;;;;;;;;;;24.00;91.00;;;;;;5133031;28;19911;-78
2020/12/27 11:06:17;;;;;;;;;;;24.00;90.90;;;;;;5115102;28;19971;-77
2020/12/27 11:08:44;;;;;;;;;;;24.00;91.00;;;;;;5111645;28;19919;-77
2020/12/27 11:11:11;;;;;;;;;;;24.00;91.00;;;;;;5111931;28;19911;-80
2020/12/27 11:13:37;;;;;;;;;;;24.00;91.20;;;;;;5113114;28;19961;-80
2020/12/27 11:16:04;;;;;;;;;;;24.00;91.10;;;;;;5112968;28;19919;-78
2020/12/27 11:18:31;;;;;;;;;;;24.00;91.00;;;;;;5094222;28;19912;-76
2020/12/27 11:20:57;;;;;;;;;;;24.00;91.00;;;;;;5112586;28;19955;-77
2020/12/27 11:23:24;;;;;;;;;;;24.00;91.10;;;;;;5112833;28;19916;-77
2020/12/27 11:25:51;;;;;;;;;;;24.00;91.10;;;;;;5113442;28;19915;-79
2020/12/27 11:28:17;;;;;;;;;;;24.00;91.00;;;;;;5113095;28;19939;-76
2020/12/27 11:30:45;;;;;;;;;;;24.00;91.10;;;;;;5112429;28;19916;-75
2020/12/27 11:33:12;;;;;;;;;;;24.00;91.00;;;;;;5112392;28;19916;-76
2020/12/27 11:35:38;;;;;;;;;;;24.00;90.90;;;;;;5094723;28;19908;-80
2020/12/27 11:38:07;;;;;;;;;;;24.00;91.00;;;;;;5114267;28;19944;-79
2020/12/27 11:40:34;;;;;;;;;;;24.00;91.00;;;;;;5111679;28;19966;-76
2020/12/27 11:43:01;;;;;;;;;;;24.00;91.10;;;;;;5103111;28;19973;-76
2020/12/27 11:45:27;;;;;;;;;;;24.00;91.10;;;;;;5115687;28;19965;-77
2020/12/27 11:47:54;;;;;;;;;;;24.00;91.20;;;;;;5116888;28;19950;-77
2020/12/27 11:50:21;;;;;;;;;;;24.00;91.20;;;;;;5098686;28;20264;-77
2020/12/27 11:52:47;;;;;;;;;;;24.00;91.10;;;;;;5116515;28;19908;-75
2020/12/27 11:55:14;;;;;;;;;;;24.00;91.00;;;;;;5115486;28;19931;-77
2020/12/27 11:57:41;;;;;;;;;;;24.00;91.00;;;;;;5098192;28;19915;-77
2020/12/27 12:00:07;;;;;;;;;;;24.10;91.00;;;;;;5096617;28;19934;-76
2020/12/27 12:02:34;;;;;;;;;;;24.00;91.00;;;;;;5096033;28;20282;-75
2020/12/27 12:05:04;;;;;;;;;;;24.10;91.00;;;;;;5106223;27;19915;-77
2020/12/27 12:07:32;;;;;;;;;;;24.10;91.00;;;;;;5117417;27;19955;-75
2020/12/27 12:09:59;;;;;;;;;;;24.10;90.90;;;;;;5134357;27;19919;-76
2020/12/27 12:12:25;;;;;;;;;;;24.10;90.90;;;;;;5119933;27;19912;-77
2020/12/27 12:14:53;;;;;;;;;;;24.10;90.90;;;;;;5117254;28;19912;-76
2020/12/27 12:17:21;;;;;;;;;;;24.10;90.90;;;;;;5127361;27;19915;-75
2020/12/27 12:19:47;;;;;;;;;;;24.20;90.80;;;;;;5132586;27;20005;-77
2020/12/27 12:22:14;;;;;;;;;;;24.10;90.80;;;;;;5134097;27;20404;-77
2020/12/27 12:24:41;;;;;;;;;;;24.10;90.80;;;;;;5137153;27;19967;-75
2020/12/27 12:27:07;;;;;;;;;;;24.10;90.70;;;;;;5127103;27;19919;-76
2020/12/27 12:29:34;;;;;;;;;;;24.10;90.90;;;;;;5126838;27;20369;-76
2020/12/27 12:32:03;;;;;;;;;;;24.10;90.90;;;;;;5128942;27;19918;-76
2020/12/27 12:34:30;;;;;;;;;;;24.10;90.90;;;;;;5136074;27;19908;-75
2020/12/27 12:36:57;;;;;;;;;;;24.10;91.00;;;;;;5116521;27;19911;-76
2020/12/27 12:39:24;;;;;;;;;;;24.10;90.90;;;;;;5132756;27;20266;-75
2020/12/27 12:41:50;;;;;;;;;;;24.10;90.90;;;;;;5136240;27;19984;-76
2020/12/27 12:44:17;;;;;;;;;;;24.10;91.00;;;;;;5117816;27;19929;-76
2020/12/27 12:46:44;;;;;;;;;;;24.00;91.00;;;;;;5136300;27;19952;-75
2020/12/27 12:49:11;;;;;;;;;;;24.00;91.10;;;;;;5135552;27;19965;-76
2020/12/27 12:51:37;;;;;;;;;;;24.00;91.00;;;;;;5118088;27;20020;-76
2020/12/27 12:54:04;;;;;;;;;;;24.10;91.00;;;;;;5135462;27;19946;-77
2020/12/27 12:56:31;;;;;;;;;;;24.10;90.80;;;;;;5117543;27;19912;-77
2020/12/27 12:58:57;;;;;;;;;;;24.10;90.90;;;;;;5123211;27;19907;-74
2020/12/27 13:01:24;;;;;;;;;;;24.10;90.80;;;;;;5117431;27;19923;-76
2020/12/27 13:03:50;;;;;;;;;;;24.10;90.80;;;;;;5133599;27;19911;-75
2020/12/27 13:06:18;;;;;;;;;;;24.10;90.80;;;;;;5135228;27;20652;-76
2020/12/27 13:08:45;;;;;;;;;;;24.10;90.90;;;;;;5117376;27;19912;-76
2020/12/27 13:11:13;;;;;;;;;;;24.00;90.80;;;;;;5115897;28;19920;-76
2020/12/27 13:13:40;;;;;;;;;;;24.10;91.00;;;;;;5129722;28;19911;-76
2020/12/27 13:16:10;;;;;;;;;;;24.00;90.90;;;;;;5129981;28;20366;-76
2020/12/27 13:18:36;;;;;;;;;;;24.00;90.90;;;;;;5130609;27;19899;-77
2020/12/27 13:21:06;;;;;;;;;;;24.00;90.90;;;;;;5136933;27;19927;-74
2020/12/27 13:23:33;;;;;;;;;;;24.00;90.90;;;;;;5139307;28;19930;-75
2020/12/27 13:26:00;;;;;;;;;;;24.00;91.00;;;;;;5137457;27;20027;-78
2020/12/27 13:28:28;;;;;;;;;;;24.00;90.90;;;;;;5119271;28;19993;-78
2020/12/27 13:30:56;;;;;;;;;;;24.00;90.70;;;;;;5122790;27;20382;-77
2020/12/27 13:33:22;;;;;;;;;;;24.10;90.70;;;;;;5135656;27;19921;-79
2020/12/27 13:35:49;;;;;;;;;;;24.00;90.80;;;;;;5135275;27;19967;-77
2020/12/27 13:38:15;;;;;;;;;;;24.00;91.00;;;;;;5135544;27;20010;-79
2020/12/27 13:40:43;;;;;;;;;;;24.00;90.70;;;;;;5135308;27;19984;-78
2020/12/27 13:43:10;;;;;;;;;;;24.00;91.00;;;;;;5135195;27;19907;-79
2020/12/27 13:45:40;;;;;;;;;;;23.90;91.00;;;;;;5134763;27;19994;-76
2020/12/27 13:48:08;;;;;;;;;;;23.80;91.10;;;;;;5134941;27;19911;-79
2020/12/27 13:50:34;;;;;;;;;;;23.80;91.20;;;;;;5135121;27;19914;-79
2020/12/27 13:53:01;;;;;;;;;;;23.80;91.20;;;;;;5135149;27;19919;-79
2020/12/27 13:55:28;;;;;;;;;;;23.80;91.10;;;;;;5133725;27;19954;-77
2020/12/27 13:57:54;;;;;;;;;;;23.80;91.10;;;;;;5134120;27;19964;-78
2020/12/27 14:00:24;;;;;;;;;;;23.80;91.00;;;;;;5134091;27;20349;-78
2020/12/27 14:02:50;;;;;;;;;;;23.80;91.10;;;;;;5134394;27;19958;-78
2020/12/27 14:05:17;;;;;;;;;;;23.70;91.20;;;;;;5134751;27;19920;-78
2020/12/27 14:07:43;;;;;;;;;;;23.70;91.20;;;;;;5135228;27;19912;-77
2020/12/27 14:10:10;;;;;;;;;;;23.70;91.10;;;;;;5126808;27;20422;-78
2020/12/27 14:12:37;;;;;;;;;;;23.80;90.80;;;;;;5126096;27;20274;-79
2020/12/27 14:15:03;;;;;;;;;;;23.80;90.50;;;;;;5130765;27;20490;-77
2020/12/27 14:17:30;;;;;;;;;;;23.90;90.40;;;;;;5114003;28;19912;-79
2020/12/27 14:19:58;;;;;;;;;;;23.90;90.40;;;;;;5123851;27;19962;-78
2020/12/27 14:22:25;;;;;;;;;;;23.90;90.30;;;;;;5120166;27;19943;-78
2020/12/27 14:24:52;;;;;;;;;;;23.90;90.20;;;;;;5134380;28;20376;-78
2020/12/27 14:27:20;;;;;;;;;;;24.00;90.10;;;;;;5134253;28;19976;-78